sensor_id;sensor_type;location;lat;lon;timestamp;P1;durP1;ratioP1;P2;durP2;ratioP2
19780;SDS011;10050;55.492;13.506;2022-10-16T00:00:35;14.90;;;10.20;;
19780;SDS011;10050;55.492;13.506;2022-10-16T00:03:02;14.10;;;11.13;;
19780;SDS011;10050;55.492;13.506;2022-10-16T00:05:28;14.20;;;10.37;;
19780;SDS011;10050;55.492;13.506;2022-10-16T00:07:54;15.67;;;10.57;;
19780;SDS011;10050;55.492;13.506;2022-10-16T00:10:20;14.07;;;10.57;;
19780;SDS011;10050;55.492;13.506;2022-10-16T00:12:46;19.23;;;11.27;;
19780;SDS011;10050;55.492;13.506;2022-10-16T00:15:12;13.70;;;11.17;;
19780;SDS011;10050;55.492;13.506;2022-10-16T00:17:38;14.70;;;10.60;;
19780;SDS011;10050;55.492;13.506;2022-10-16T00:20:04;17.80;;;10.83;;
19780;SDS011;10050;55.492;13.506;2022-10-16T00:22:30;15.70;;;11.50;;
19780;SDS011;10050;55.492;13.506;2022-10-16T00:24:56;12.73;;;10.83;;
19780;SDS011;10050;55.492;13.506;2022-10-16T00:27:21;14.50;;;11.13;;
19780;SDS011;10050;55.492;13.506;2022-10-16T00:29:51;15.70;;;11.13;;
19780;SDS011;10050;55.492;13.506;2022-10-16T00:32:18;13.50;;;11.77;;
19780;SDS011;10050;55.492;13.506;2022-10-16T00:34:46;16.40;;;11.67;;
19780;SDS011;10050;55.492;13.506;2022-10-16T00:37:12;16.27;;;11.23;;
19780;SDS011;10050;55.492;13.506;2022-10-16T00:39:38;16.33;;;11.93;;
19780;SDS011;10050;55.492;13.506;2022-10-16T00:42:04;14.43;;;11.17;;
19780;SDS011;10050;55.492;13.506;2022-10-16T00:50:13;19.77;;;12.70;;
19780;SDS011;10050;55.492;13.506;2022-10-16T00:52:47;17.20;;;11.07;;
19780;SDS011;10050;55.492;13.506;2022-10-16T00:55:14;15.63;;;10.87;;
19780;SDS011;10050;55.492;13.506;2022-10-16T00:57:41;16.83;;;11.73;;
19780;SDS011;10050;55.492;13.506;2022-10-16T01:00:12;17.83;;;11.73;;
19780;SDS011;10050;55.492;13.506;2022-10-16T01:02:40;18.63;;;12.47;;
19780;SDS011;10050;55.492;13.506;2022-10-16T01:05:06;16.00;;;11.37;;
19780;SDS011;10050;55.492;13.506;2022-10-16T01:13:16;15.80;;;11.63;;
19780;SDS011;10050;55.492;13.506;2022-10-16T01:15:56;15.50;;;11.97;;
19780;SDS011;10050;55.492;13.506;2022-10-16T01:21:05;14.77;;;11.30;;
19780;SDS011;10050;55.492;13.506;2022-10-16T01:23:54;16.47;;;11.90;;
19780;SDS011;10050;55.492;13.506;2022-10-16T01:26:31;17.80;;;11.93;;
19780;SDS011;10050;55.492;13.506;2022-10-16T01:29:08;14.90;;;12.10;;
19780;SDS011;10050;55.492;13.506;2022-10-16T01:31:48;15.13;;;11.23;;
19780;SDS011;10050;55.492;13.506;2022-10-16T01:34:19;16.50;;;11.73;;
19780;SDS011;10050;55.492;13.506;2022-10-16T01:36:51;19.00;;;11.80;;
19780;SDS011;10050;55.492;13.506;2022-10-16T01:39:21;18.93;;;12.10;;
19780;SDS011;10050;55.492;13.506;2022-10-16T01:41:54;14.17;;;11.40;;
19780;SDS011;10050;55.492;13.506;2022-10-16T01:44:26;16.50;;;12.63;;
19780;SDS011;10050;55.492;13.506;2022-10-16T01:46:54;16.43;;;11.93;;
19780;SDS011;10050;55.492;13.506;2022-10-16T01:49:21;18.50;;;12.43;;
19780;SDS011;10050;55.492;13.506;2022-10-16T01:51:52;16.87;;;12.47;;
19780;SDS011;10050;55.492;13.506;2022-10-16T01:54:20;19.23;;;12.37;;
19780;SDS011;10050;55.492;13.506;2022-10-16T01:56:50;17.13;;;13.07;;
19780;SDS011;10050;55.492;13.506;2022-10-16T01:59:18;20.40;;;13.73;;
19780;SDS011;10050;55.492;13.506;2022-10-16T02:01:47;19.13;;;13.20;;
19780;SDS011;10050;55.492;13.506;2022-10-16T02:04:22;17.07;;;11.93;;
19780;SDS011;10050;55.492;13.506;2022-10-16T02:06:52;20.23;;;13.00;;
19780;SDS011;10050;55.492;13.506;2022-10-16T02:09:18;20.90;;;13.13;;
19780;SDS011;10050;55.492;13.506;2022-10-16T02:11:44;16.77;;;12.37;;
19780;SDS011;10050;55.492;13.506;2022-10-16T02:14:10;18.43;;;12.83;;
19780;SDS011;10050;55.492;13.506;2022-10-16T02:16:40;18.07;;;13.13;;
19780;SDS011;10050;55.492;13.506;2022-10-16T02:19:07;17.77;;;12.43;;
19780;SDS011;10050;55.492;13.506;2022-10-16T02:21:41;18.93;;;12.07;;
19780;SDS011;10050;55.492;13.506;2022-10-16T02:29:42;20.07;;;12.73;;
19780;SDS011;10050;55.492;13.506;2022-10-16T02:32:15;19.67;;;13.53;;
19780;SDS011;10050;55.492;13.506;2022-10-16T02:34:45;17.70;;;12.13;;
19780;SDS011;10050;55.492;13.506;2022-10-16T02:37:13;18.90;;;12.50;;
19780;SDS011;10050;55.492;13.506;2022-10-16T02:39:39;16.80;;;12.33;;
19780;SDS011;10050;55.492;13.506;2022-10-16T02:42:09;17.40;;;12.17;;
19780;SDS011;10050;55.492;13.506;2022-10-16T02:44:39;18.07;;;12.10;;
19780;SDS011;10050;55.492;13.506;2022-10-16T02:47:05;16.27;;;11.93;;
19780;SDS011;10050;55.492;13.506;2022-10-16T02:49:30;15.17;;;11.43;;
19780;SDS011;10050;55.492;13.506;2022-10-16T02:51:56;17.60;;;11.37;;
19780;SDS011;10050;55.492;13.506;2022-10-16T02:54:22;15.37;;;9.37;;
19780;SDS011;10050;55.492;13.506;2022-10-16T02:56:47;11.87;;;10.07;;
19780;SDS011;10050;55.492;13.506;2022-10-16T02:59:13;12.27;;;9.60;;
19780;SDS011;10050;55.492;13.506;2022-10-16T03:01:38;12.57;;;10.57;;
19780;SDS011;10050;55.492;13.506;2022-10-16T03:04:04;12.87;;;9.23;;
19780;SDS011;10050;55.492;13.506;2022-10-16T03:06:30;13.73;;;9.77;;
19780;SDS011;10050;55.492;13.506;2022-10-16T03:08:55;13.13;;;9.03;;
19780;SDS011;10050;55.492;13.506;2022-10-16T03:11:21;14.47;;;8.80;;
19780;SDS011;10050;55.492;13.506;2022-10-16T03:13:46;15.23;;;8.80;;
19780;SDS011;10050;55.492;13.506;2022-10-16T03:16:12;12.90;;;8.73;;
19780;SDS011;10050;55.492;13.506;2022-10-16T03:18:38;11.77;;;8.80;;
19780;SDS011;10050;55.492;13.506;2022-10-16T03:21:04;12.20;;;8.50;;
19780;SDS011;10050;55.492;13.506;2022-10-16T03:23:29;12.83;;;8.53;;
19780;SDS011;10050;55.492;13.506;2022-10-16T03:25:55;11.20;;;8.43;;
19780;SDS011;10050;55.492;13.506;2022-10-16T03:28:21;11.70;;;8.33;;
19780;SDS011;10050;55.492;13.506;2022-10-16T03:30:46;14.07;;;8.13;;
19780;SDS011;10050;55.492;13.506;2022-10-16T03:33:12;11.40;;;8.47;;
19780;SDS011;10050;55.492;13.506;2022-10-16T03:35:37;10.93;;;8.23;;
19780;SDS011;10050;55.492;13.506;2022-10-16T03:38:03;11.57;;;8.37;;
19780;SDS011;10050;55.492;13.506;2022-10-16T03:40:29;10.63;;;8.13;;
19780;SDS011;10050;55.492;13.506;2022-10-16T03:42:56;10.10;;;8.10;;
19780;SDS011;10050;55.492;13.506;2022-10-16T03:45:22;11.63;;;8.37;;
19780;SDS011;10050;55.492;13.506;2022-10-16T03:47:48;15.63;;;8.57;;
19780;SDS011;10050;55.492;13.506;2022-10-16T03:50:14;13.63;;;8.53;;
19780;SDS011;10050;55.492;13.506;2022-10-16T03:52:39;12.17;;;7.67;;
19780;SDS011;10050;55.492;13.506;2022-10-16T03:55:05;10.07;;;7.67;;
19780;SDS011;10050;55.492;13.506;2022-10-16T03:57:31;9.67;;;7.60;;
19780;SDS011;10050;55.492;13.506;2022-10-16T03:59:57;10.83;;;8.00;;
19780;SDS011;10050;55.492;13.506;2022-10-16T04:02:23;9.70;;;7.90;;
19780;SDS011;10050;55.492;13.506;2022-10-16T04:04:48;10.10;;;7.30;;
19780;SDS011;10050;55.492;13.506;2022-10-16T04:07:14;12.20;;;8.43;;
19780;SDS011;10050;55.492;13.506;2022-10-16T04:09:39;12.70;;;8.50;;
19780;SDS011;10050;55.492;13.506;2022-10-16T04:12:05;10.47;;;7.50;;
19780;SDS011;10050;55.492;13.506;2022-10-16T04:14:31;12.17;;;7.40;;
19780;SDS011;10050;55.492;13.506;2022-10-16T04:16:56;12.07;;;8.00;;
19780;SDS011;10050;55.492;13.506;2022-10-16T04:19:22;10.60;;;6.87;;
19780;SDS011;10050;55.492;13.506;2022-10-16T04:21:47;9.20;;;6.83;;
19780;SDS011;10050;55.492;13.506;2022-10-16T04:24:13;9.50;;;6.63;;
19780;SDS011;10050;55.492;13.506;2022-10-16T04:26:39;7.53;;;6.10;;
19780;SDS011;10050;55.492;13.506;2022-10-16T04:29:04;9.37;;;5.90;;
19780;SDS011;10050;55.492;13.506;2022-10-16T04:31:31;10.27;;;6.27;;
19780;SDS011;10050;55.492;13.506;2022-10-16T04:33:56;7.57;;;6.03;;
19780;SDS011;10050;55.492;13.506;2022-10-16T04:36:22;6.63;;;5.57;;
19780;SDS011;10050;55.492;13.506;2022-10-16T04:38:48;9.73;;;6.10;;
19780;SDS011;10050;55.492;13.506;2022-10-16T04:41:14;9.17;;;5.70;;
19780;SDS011;10050;55.492;13.506;2022-10-16T04:43:39;8.53;;;5.70;;
19780;SDS011;10050;55.492;13.506;2022-10-16T04:46:05;11.73;;;6.30;;
19780;SDS011;10050;55.492;13.506;2022-10-16T04:48:31;6.60;;;5.57;;
19780;SDS011;10050;55.492;13.506;2022-10-16T04:50:57;8.13;;;5.80;;
19780;SDS011;10050;55.492;13.506;2022-10-16T04:53:22;9.77;;;6.43;;
19780;SDS011;10050;55.492;13.506;2022-10-16T04:55:48;7.10;;;5.97;;
19780;SDS011;10050;55.492;13.506;2022-10-16T04:58:14;8.70;;;6.57;;
19780;SDS011;10050;55.492;13.506;2022-10-16T05:00:40;12.70;;;7.67;;
19780;SDS011;10050;55.492;13.506;2022-10-16T05:03:05;11.43;;;6.30;;
19780;SDS011;10050;55.492;13.506;2022-10-16T05:05:33;12.17;;;7.17;;
19780;SDS011;10050;55.492;13.506;2022-10-16T05:08:00;10.93;;;6.10;;
19780;SDS011;10050;55.492;13.506;2022-10-16T05:10:25;7.93;;;7.13;;
19780;SDS011;10050;55.492;13.506;2022-10-16T05:12:51;12.73;;;7.37;;
19780;SDS011;10050;55.492;13.506;2022-10-16T05:15:17;11.83;;;7.60;;
19780;SDS011;10050;55.492;13.506;2022-10-16T05:17:43;11.67;;;7.13;;
19780;SDS011;10050;55.492;13.506;2022-10-16T05:20:09;10.57;;;6.63;;
19780;SDS011;10050;55.492;13.506;2022-10-16T05:22:35;10.27;;;7.10;;
19780;SDS011;10050;55.492;13.506;2022-10-16T05:25:00;9.83;;;6.10;;
19780;SDS011;10050;55.492;13.506;2022-10-16T05:27:26;9.13;;;6.37;;
19780;SDS011;10050;55.492;13.506;2022-10-16T05:29:52;11.90;;;6.20;;
19780;SDS011;10050;55.492;13.506;2022-10-16T05:32:18;10.07;;;6.03;;
19780;SDS011;10050;55.492;13.506;2022-10-16T05:34:44;10.27;;;5.40;;
19780;SDS011;10050;55.492;13.506;2022-10-16T05:37:10;9.13;;;6.03;;
19780;SDS011;10050;55.492;13.506;2022-10-16T05:39:36;8.87;;;5.27;;
19780;SDS011;10050;55.492;13.506;2022-10-16T05:42:03;8.13;;;4.87;;
19780;SDS011;10050;55.492;13.506;2022-10-16T05:44:29;8.70;;;4.77;;
19780;SDS011;10050;55.492;13.506;2022-10-16T05:46:55;6.03;;;5.00;;
19780;SDS011;10050;55.492;13.506;2022-10-16T05:49:21;4.80;;;4.40;;
19780;SDS011;10050;55.492;13.506;2022-10-16T05:51:46;9.13;;;5.10;;
19780;SDS011;10050;55.492;13.506;2022-10-16T05:54:12;9.80;;;5.00;;
19780;SDS011;10050;55.492;13.506;2022-10-16T05:56:38;6.63;;;4.73;;
19780;SDS011;10050;55.492;13.506;2022-10-16T05:59:03;5.73;;;4.43;;
19780;SDS011;10050;55.492;13.506;2022-10-16T06:01:29;7.43;;;4.10;;
19780;SDS011;10050;55.492;13.506;2022-10-16T06:03:55;7.93;;;4.00;;
19780;SDS011;10050;55.492;13.506;2022-10-16T06:06:23;6.63;;;3.50;;
19780;SDS011;10050;55.492;13.506;2022-10-16T06:08:50;6.53;;;3.80;;
19780;SDS011;10050;55.492;13.506;2022-10-16T06:11:21;6.57;;;3.63;;
19780;SDS011;10050;55.492;13.506;2022-10-16T06:13:51;5.63;;;3.13;;
19780;SDS011;10050;55.492;13.506;2022-10-16T06:16:18;6.83;;;3.47;;
19780;SDS011;10050;55.492;13.506;2022-10-16T06:18:46;6.87;;;3.20;;
19780;SDS011;10050;55.492;13.506;2022-10-16T06:21:16;6.60;;;3.13;;
19780;SDS011;10050;55.492;13.506;2022-10-16T06:23:44;6.77;;;3.53;;
19780;SDS011;10050;55.492;13.506;2022-10-16T06:26:12;4.53;;;3.03;;
19780;SDS011;10050;55.492;13.506;2022-10-16T06:28:39;6.90;;;3.60;;
19780;SDS011;10050;55.492;13.506;2022-10-16T06:31:05;7.80;;;3.53;;
19780;SDS011;10050;55.492;13.506;2022-10-16T06:33:32;3.90;;;3.07;;
19780;SDS011;10050;55.492;13.506;2022-10-16T06:36:05;6.27;;;3.87;;
19780;SDS011;10050;55.492;13.506;2022-10-16T06:38:32;9.10;;;3.63;;
19780;SDS011;10050;55.492;13.506;2022-10-16T06:40:58;5.10;;;3.00;;
19780;SDS011;10050;55.492;13.506;2022-10-16T06:43:24;7.63;;;3.53;;
19780;SDS011;10050;55.492;13.506;2022-10-16T06:45:53;4.80;;;3.20;;
19780;SDS011;10050;55.492;13.506;2022-10-16T06:48:20;6.53;;;3.17;;
19780;SDS011;10050;55.492;13.506;2022-10-16T06:51:05;9.07;;;3.80;;
19780;SDS011;10050;55.492;13.506;2022-10-16T06:53:35;8.43;;;3.63;;
19780;SDS011;10050;55.492;13.506;2022-10-16T06:56:14;6.77;;;3.50;;
19780;SDS011;10050;55.492;13.506;2022-10-16T06:58:42;5.33;;;3.10;;
19780;SDS011;10050;55.492;13.506;2022-10-16T07:01:08;5.83;;;3.17;;
19780;SDS011;10050;55.492;13.506;2022-10-16T07:03:39;4.37;;;2.90;;
19780;SDS011;10050;55.492;13.506;2022-10-16T07:06:06;7.43;;;2.97;;
19780;SDS011;10050;55.492;13.506;2022-10-16T07:08:33;6.67;;;3.30;;
19780;SDS011;10050;55.492;13.506;2022-10-16T07:11:03;5.63;;;3.30;;
19780;SDS011;10050;55.492;13.506;2022-10-16T07:13:34;3.20;;;2.60;;
19780;SDS011;10050;55.492;13.506;2022-10-16T07:16:04;4.10;;;2.17;;
19780;SDS011;10050;55.492;13.506;2022-10-16T07:18:32;4.37;;;2.50;;
19780;SDS011;10050;55.492;13.506;2022-10-16T07:23:37;5.97;;;2.60;;
19780;SDS011;10050;55.492;13.506;2022-10-16T07:26:03;5.30;;;2.10;;
19780;SDS011;10050;55.492;13.506;2022-10-16T07:28:30;5.10;;;2.17;;
19780;SDS011;10050;55.492;13.506;2022-10-16T07:31:00;5.30;;;2.20;;
19780;SDS011;10050;55.492;13.506;2022-10-16T07:33:31;4.20;;;1.87;;
19780;SDS011;10050;55.492;13.506;2022-10-16T07:35:58;2.87;;;1.83;;
19780;SDS011;10050;55.492;13.506;2022-10-16T07:38:23;3.50;;;1.90;;
19780;SDS011;10050;55.492;13.506;2022-10-16T07:40:55;6.30;;;2.20;;
19780;SDS011;10050;55.492;13.506;2022-10-16T07:43:22;2.17;;;1.80;;
19780;SDS011;10050;55.492;13.506;2022-10-16T07:45:48;3.37;;;1.90;;
19780;SDS011;10050;55.492;13.506;2022-10-16T07:48:14;2.83;;;1.83;;
19780;SDS011;10050;55.492;13.506;2022-10-16T07:50:40;2.97;;;2.17;;
19780;SDS011;10050;55.492;13.506;2022-10-16T07:53:06;3.60;;;2.10;;
19780;SDS011;10050;55.492;13.506;2022-10-16T07:55:32;3.70;;;1.80;;
19780;SDS011;10050;55.492;13.506;2022-10-16T07:57:57;3.47;;;1.70;;
19780;SDS011;10050;55.492;13.506;2022-10-16T08:00:23;4.80;;;2.00;;
19780;SDS011;10050;55.492;13.506;2022-10-16T08:02:49;3.97;;;1.60;;
19780;SDS011;10050;55.492;13.506;2022-10-16T08:05:14;3.20;;;1.37;;
19780;SDS011;10050;55.492;13.506;2022-10-16T08:07:40;2.87;;;1.37;;
19780;SDS011;10050;55.492;13.506;2022-10-16T08:10:06;2.80;;;2.00;;
19780;SDS011;10050;55.492;13.506;2022-10-16T08:12:32;2.80;;;1.77;;
19780;SDS011;10050;55.492;13.506;2022-10-16T08:14:57;4.33;;;1.50;;
19780;SDS011;10050;55.492;13.506;2022-10-16T08:17:23;5.20;;;1.60;;
19780;SDS011;10050;55.492;13.506;2022-10-16T08:19:48;4.23;;;1.70;;
19780;SDS011;10050;55.492;13.506;2022-10-16T08:22:14;1.87;;;1.47;;
19780;SDS011;10050;55.492;13.506;2022-10-16T08:24:40;2.93;;;1.50;;
19780;SDS011;10050;55.492;13.506;2022-10-16T08:27:06;5.40;;;1.60;;
19780;SDS011;10050;55.492;13.506;2022-10-16T08:29:32;5.10;;;1.90;;
19780;SDS011;10050;55.492;13.506;2022-10-16T08:31:58;4.23;;;1.90;;
19780;SDS011;10050;55.492;13.506;2022-10-16T08:34:23;2.43;;;1.30;;
19780;SDS011;10050;55.492;13.506;2022-10-16T08:36:49;3.60;;;1.20;;
19780;SDS011;10050;55.492;13.506;2022-10-16T08:39:15;4.73;;;1.70;;
19780;SDS011;10050;55.492;13.506;2022-10-16T08:44:34;7.10;;;1.53;;
19780;SDS011;10050;55.492;13.506;2022-10-16T08:49:59;3.77;;;1.60;;
19780;SDS011;10050;55.492;13.506;2022-10-16T08:52:33;3.20;;;1.53;;
19780;SDS011;10050;55.492;13.506;2022-10-16T08:55:03;5.57;;;1.50;;
19780;SDS011;10050;55.492;13.506;2022-10-16T08:57:29;1.73;;;1.00;;
19780;SDS011;10050;55.492;13.506;2022-10-16T08:59:58;4.57;;;1.53;;
19780;SDS011;10050;55.492;13.506;2022-10-16T09:05:17;3.50;;;1.60;;
19780;SDS011;10050;55.492;13.506;2022-10-16T09:13:07;4.03;;;1.53;;
19780;SDS011;10050;55.492;13.506;2022-10-16T09:23:53;6.20;;;1.77;;
19780;SDS011;10050;55.492;13.506;2022-10-16T09:26:21;1.20;;;1.10;;
19780;SDS011;10050;55.492;13.506;2022-10-16T09:28:47;2.77;;;1.13;;
19780;SDS011;10050;55.492;13.506;2022-10-16T09:31:17;4.80;;;1.50;;
19780;SDS011;10050;55.492;13.506;2022-10-16T09:33:47;4.30;;;1.30;;
19780;SDS011;10050;55.492;13.506;2022-10-16T09:36:18;2.90;;;1.40;;
19780;SDS011;10050;55.492;13.506;2022-10-16T09:38:45;2.23;;;1.07;;
19780;SDS011;10050;55.492;13.506;2022-10-16T09:41:29;4.27;;;1.30;;
19780;SDS011;10050;55.492;13.506;2022-10-16T09:43:55;2.83;;;1.43;;
19780;SDS011;10050;55.492;13.506;2022-10-16T09:46:32;3.13;;;1.30;;
19780;SDS011;10050;55.492;13.506;2022-10-16T09:49:16;6.70;;;1.47;;
19780;SDS011;10050;55.492;13.506;2022-10-16T09:51:48;3.13;;;1.20;;
19780;SDS011;10050;55.492;13.506;2022-10-16T09:54:18;2.97;;;1.20;;
19780;SDS011;10050;55.492;13.506;2022-10-16T09:56:45;1.53;;;1.20;;
19780;SDS011;10050;55.492;13.506;2022-10-16T10:01:47;4.33;;;1.20;;
19780;SDS011;10050;55.492;13.506;2022-10-16T10:04:18;1.47;;;1.10;;
19780;SDS011;10050;55.492;13.506;2022-10-16T10:06:46;1.77;;;1.10;;
19780;SDS011;10050;55.492;13.506;2022-10-16T10:09:20;4.83;;;1.53;;
19780;SDS011;10050;55.492;13.506;2022-10-16T10:14:32;2.90;;;1.20;;
19780;SDS011;10050;55.492;13.506;2022-10-16T10:19:46;3.03;;;1.40;;
19780;SDS011;10050;55.492;13.506;2022-10-16T10:22:17;3.63;;;1.27;;
19780;SDS011;10050;55.492;13.506;2022-10-16T10:35:44;4.50;;;1.47;;
19780;SDS011;10050;55.492;13.506;2022-10-16T10:38:39;4.93;;;1.63;;
19780;SDS011;10050;55.492;13.506;2022-10-16T10:50:12;3.40;;;1.37;;
19780;SDS011;10050;55.492;13.506;2022-10-16T11:00:44;4.30;;;1.50;;
19780;SDS011;10050;55.492;13.506;2022-10-16T11:06:50;3.67;;;1.87;;
19780;SDS011;10050;55.492;13.506;2022-10-16T11:09:21;2.90;;;1.60;;
19780;SDS011;10050;55.492;13.506;2022-10-16T11:11:52;3.27;;;1.20;;
19780;SDS011;10050;55.492;13.506;2022-10-16T11:14:28;5.37;;;1.73;;
19780;SDS011;10050;55.492;13.506;2022-10-16T11:17:08;2.70;;;1.10;;
19780;SDS011;10050;55.492;13.506;2022-10-16T11:19:54;4.83;;;1.37;;
19780;SDS011;10050;55.492;13.506;2022-10-16T11:27:49;4.23;;;1.50;;
19780;SDS011;10050;55.492;13.506;2022-10-16T11:42:08;4.07;;;1.63;;
19780;SDS011;10050;55.492;13.506;2022-10-16T11:49:37;2.87;;;1.40;;
19780;SDS011;10050;55.492;13.506;2022-10-16T11:52:19;2.23;;;1.03;;
19780;SDS011;10050;55.492;13.506;2022-10-16T11:57:56;1.90;;;1.47;;
19780;SDS011;10050;55.492;13.506;2022-10-16T12:01:16;3.90;;;1.37;;
19780;SDS011;10050;55.492;13.506;2022-10-16T12:03:26;3.90;;;1.30;;
19780;SDS011;10050;55.492;13.506;2022-10-16T12:08:48;4.90;;;1.30;;
19780;SDS011;10050;55.492;13.506;2022-10-16T12:14:04;3.03;;;1.33;;
19780;SDS011;10050;55.492;13.506;2022-10-16T12:16:29;1.60;;;1.43;;
19780;SDS011;10050;55.492;13.506;2022-10-16T12:19:15;3.43;;;1.40;;
19780;SDS011;10050;55.492;13.506;2022-10-16T12:21:42;3.83;;;1.27;;
19780;SDS011;10050;55.492;13.506;2022-10-16T12:27:04;5.40;;;1.70;;
19780;SDS011;10050;55.492;13.506;2022-10-16T12:29:42;2.90;;;1.37;;
19780;SDS011;10050;55.492;13.506;2022-10-16T12:32:22;4.33;;;1.53;;
19780;SDS011;10050;55.492;13.506;2022-10-16T12:34:50;6.40;;;1.67;;
19780;SDS011;10050;55.492;13.506;2022-10-16T12:37:32;4.83;;;1.50;;
19780;SDS011;10050;55.492;13.506;2022-10-16T12:39:59;7.07;;;1.50;;
19780;SDS011;10050;55.492;13.506;2022-10-16T12:42:54;2.67;;;1.60;;
19780;SDS011;10050;55.492;13.506;2022-10-16T12:45:30;3.10;;;1.60;;
19780;SDS011;10050;55.492;13.506;2022-10-16T12:47:59;2.87;;;1.67;;
19780;SDS011;10050;55.492;13.506;2022-10-16T12:50:28;4.37;;;2.03;;
19780;SDS011;10050;55.492;13.506;2022-10-16T12:53:02;4.33;;;1.60;;
19780;SDS011;10050;55.492;13.506;2022-10-16T12:55:48;3.37;;;1.43;;
19780;SDS011;10050;55.492;13.506;2022-10-16T13:01:07;3.83;;;1.50;;
19780;SDS011;10050;55.492;13.506;2022-10-16T13:12:15;4.90;;;1.80;;
19780;SDS011;10050;55.492;13.506;2022-10-16T13:14:50;3.13;;;1.87;;
19780;SDS011;10050;55.492;13.506;2022-10-16T13:17:31;5.47;;;1.47;;
19780;SDS011;10050;55.492;13.506;2022-10-16T13:28:03;4.03;;;1.57;;
19780;SDS011;10050;55.492;13.506;2022-10-16T13:30:36;6.80;;;2.00;;
19780;SDS011;10050;55.492;13.506;2022-10-16T13:35:49;2.47;;;1.73;;
19780;SDS011;10050;55.492;13.506;2022-10-16T13:38:20;4.77;;;1.53;;
19780;SDS011;10050;55.492;13.506;2022-10-16T13:40:58;6.67;;;1.83;;
19780;SDS011;10050;55.492;13.506;2022-10-16T13:46:02;3.93;;;2.03;;
19780;SDS011;10050;55.492;13.506;2022-10-16T13:48:30;4.67;;;1.83;;
19780;SDS011;10050;55.492;13.506;2022-10-16T13:53:29;6.60;;;2.10;;
19780;SDS011;10050;55.492;13.506;2022-10-16T13:55:59;4.60;;;2.00;;
19780;SDS011;10050;55.492;13.506;2022-10-16T13:58:27;3.80;;;1.83;;
19780;SDS011;10050;55.492;13.506;2022-10-16T14:00:53;6.27;;;2.00;;
19780;SDS011;10050;55.492;13.506;2022-10-16T14:03:22;3.60;;;1.97;;
19780;SDS011;10050;55.492;13.506;2022-10-16T14:05:49;6.63;;;2.10;;
19780;SDS011;10050;55.492;13.506;2022-10-16T14:08:17;3.70;;;1.97;;
19780;SDS011;10050;55.492;13.506;2022-10-16T14:10:46;3.97;;;1.83;;
19780;SDS011;10050;55.492;13.506;2022-10-16T14:13:20;6.50;;;1.73;;
19780;SDS011;10050;55.492;13.506;2022-10-16T14:15:54;3.33;;;1.70;;
19780;SDS011;10050;55.492;13.506;2022-10-16T14:18:24;5.57;;;2.00;;
19780;SDS011;10050;55.492;13.506;2022-10-16T14:20:52;5.67;;;2.20;;
19780;SDS011;10050;55.492;13.506;2022-10-16T14:25:48;6.27;;;1.93;;
19780;SDS011;10050;55.492;13.506;2022-10-16T14:36:13;7.70;;;1.63;;
19780;SDS011;10050;55.492;13.506;2022-10-16T14:39:03;9.13;;;2.17;;
19780;SDS011;10050;55.492;13.506;2022-10-16T14:41:27;7.47;;;2.13;;
19780;SDS011;10050;55.492;13.506;2022-10-16T14:43:55;6.20;;;1.70;;
19780;SDS011;10050;55.492;13.506;2022-10-16T14:46:30;7.00;;;1.60;;
19780;SDS011;10050;55.492;13.506;2022-10-16T14:51:39;5.33;;;1.60;;
19780;SDS011;10050;55.492;13.506;2022-10-16T14:54:07;7.80;;;1.97;;
19780;SDS011;10050;55.492;13.506;2022-10-16T14:56:35;9.93;;;2.07;;
19780;SDS011;10050;55.492;13.506;2022-10-16T14:59:12;3.87;;;1.30;;
19780;SDS011;10050;55.492;13.506;2022-10-16T15:02:19;6.40;;;2.00;;
19780;SDS011;10050;55.492;13.506;2022-10-16T15:04:46;5.27;;;1.73;;
19780;SDS011;10050;55.492;13.506;2022-10-16T15:07:11;5.15;;;2.10;;
19780;SDS011;10050;55.492;13.506;2022-10-16T15:09:37;8.93;;;2.30;;
19780;SDS011;10050;55.492;13.506;2022-10-16T15:12:03;6.40;;;1.93;;
19780;SDS011;10050;55.492;13.506;2022-10-16T15:14:29;6.70;;;2.00;;
19780;SDS011;10050;55.492;13.506;2022-10-16T15:16:54;6.47;;;1.77;;
19780;SDS011;10050;55.492;13.506;2022-10-16T15:19:20;8.80;;;1.70;;
19780;SDS011;10050;55.492;13.506;2022-10-16T15:21:46;10.07;;;1.70;;
19780;SDS011;10050;55.492;13.506;2022-10-16T15:24:13;5.57;;;2.07;;
19780;SDS011;10050;55.492;13.506;2022-10-16T15:26:38;6.83;;;1.70;;
19780;SDS011;10050;55.492;13.506;2022-10-16T15:29:04;6.77;;;1.63;;
19780;SDS011;10050;55.492;13.506;2022-10-16T15:31:31;5.67;;;1.97;;
19780;SDS011;10050;55.492;13.506;2022-10-16T15:33:56;7.33;;;1.93;;
19780;SDS011;10050;55.492;13.506;2022-10-16T15:36:31;6.40;;;1.70;;
19780;SDS011;10050;55.492;13.506;2022-10-16T15:38:59;4.90;;;1.17;;
19780;SDS011;10050;55.492;13.506;2022-10-16T15:41:25;6.43;;;1.40;;
19780;SDS011;10050;55.492;13.506;2022-10-16T15:43:51;4.53;;;1.93;;
19780;SDS011;10050;55.492;13.506;2022-10-16T15:46:18;9.63;;;1.70;;
19780;SDS011;10050;55.492;13.506;2022-10-16T15:48:45;5.37;;;1.60;;
19780;SDS011;10050;55.492;13.506;2022-10-16T15:51:11;6.20;;;1.90;;
19780;SDS011;10050;55.492;13.506;2022-10-16T15:53:37;8.40;;;2.00;;
19780;SDS011;10050;55.492;13.506;2022-10-16T15:56:03;5.30;;;1.60;;
19780;SDS011;10050;55.492;13.506;2022-10-16T15:58:30;6.67;;;1.87;;
19780;SDS011;10050;55.492;13.506;2022-10-16T16:00:57;6.40;;;1.90;;
19780;SDS011;10050;55.492;13.506;2022-10-16T16:03:25;2.77;;;1.47;;
19780;SDS011;10050;55.492;13.506;2022-10-16T16:05:52;3.73;;;1.63;;
19780;SDS011;10050;55.492;13.506;2022-10-16T16:08:17;6.83;;;1.73;;
19780;SDS011;10050;55.492;13.506;2022-10-16T16:10:43;6.87;;;1.50;;
19780;SDS011;10050;55.492;13.506;2022-10-16T16:13:09;9.03;;;2.27;;
19780;SDS011;10050;55.492;13.506;2022-10-16T16:15:37;8.27;;;1.70;;
19780;SDS011;10050;55.492;13.506;2022-10-16T16:18:04;5.93;;;1.90;;
19780;SDS011;10050;55.492;13.506;2022-10-16T16:20:30;7.37;;;2.30;;
19780;SDS011;10050;55.492;13.506;2022-10-16T16:22:56;7.13;;;1.97;;
19780;SDS011;10050;55.492;13.506;2022-10-16T16:25:22;8.17;;;1.63;;
19780;SDS011;10050;55.492;13.506;2022-10-16T16:27:47;5.93;;;1.73;;
19780;SDS011;10050;55.492;13.506;2022-10-16T16:30:13;10.60;;;2.07;;
19780;SDS011;10050;55.492;13.506;2022-10-16T16:32:38;11.27;;;2.23;;
19780;SDS011;10050;55.492;13.506;2022-10-16T16:35:04;7.93;;;1.70;;
19780;SDS011;10050;55.492;13.506;2022-10-16T16:37:30;6.10;;;2.03;;
19780;SDS011;10050;55.492;13.506;2022-10-16T16:39:56;6.03;;;2.17;;
19780;SDS011;10050;55.492;13.506;2022-10-16T16:42:23;10.40;;;2.33;;
19780;SDS011;10050;55.492;13.506;2022-10-16T16:44:50;9.87;;;2.17;;
19780;SDS011;10050;55.492;13.506;2022-10-16T16:47:16;8.13;;;1.87;;
19780;SDS011;10050;55.492;13.506;2022-10-16T16:49:42;8.00;;;2.03;;
19780;SDS011;10050;55.492;13.506;2022-10-16T16:52:07;5.90;;;1.70;;
19780;SDS011;10050;55.492;13.506;2022-10-16T16:54:33;9.97;;;2.00;;
19780;SDS011;10050;55.492;13.506;2022-10-16T16:56:58;8.93;;;1.80;;
19780;SDS011;10050;55.492;13.506;2022-10-16T16:59:24;7.20;;;2.03;;
19780;SDS011;10050;55.492;13.506;2022-10-16T17:01:50;8.23;;;2.17;;
19780;SDS011;10050;55.492;13.506;2022-10-16T17:04:16;11.67;;;1.93;;
19780;SDS011;10050;55.492;13.506;2022-10-16T17:06:42;10.90;;;2.47;;
19780;SDS011;10050;55.492;13.506;2022-10-16T17:09:08;7.73;;;1.80;;
19780;SDS011;10050;55.492;13.506;2022-10-16T17:11:34;7.37;;;2.13;;
19780;SDS011;10050;55.492;13.506;2022-10-16T17:14:00;8.63;;;1.60;;